Aviation Digital Data Service (ADDS)

Output produced by METARs form (1533 UTC 25 June 2017)
found at http://aviationweather.gov/adds/metars/
 
KGNV 251120Z 2512/2612 23003KT P6SM FEW030 SCT250 
     FM251500 25008KT P6SM VCSH SCT030 BKN200 
     FM252300 28005KT P6SM FEW040 SCT100 BKN200